sensor_id;sensor_type;location;lat;lon;timestamp;pressure;altitude;pressure_sealevel;temperature;humidity
78144;BME280;67394;52.522;13.622;2023-02-12T00:01:12;102709.75;;;6.25;91.01
78144;BME280;67394;52.522;13.622;2023-02-12T00:03:39;102705.00;;;6.15;91.13
78144;BME280;67394;52.522;13.622;2023-02-12T00:06:07;102712.97;;;6.21;90.76
78144;BME280;67394;52.522;13.622;2023-02-12T00:08:34;102719.72;;;6.20;91.21
78144;BME280;67394;52.522;13.622;2023-02-12T00:11:12;102722.47;;;6.25;90.30
78144;BME280;67394;52.522;13.622;2023-02-12T00:13:39;102726.56;;;6.21;90.90
78144;BME280;67394;52.522;13.622;2023-02-12T00:16:12;102730.53;;;6.16;91.41
78144;BME280;67394;52.522;13.622;2023-02-12T00:18:39;102722.75;;;6.13;91.45
78144;BME280;67394;52.522;13.622;2023-02-12T00:21:05;102736.38;;;6.14;91.54
78144;BME280;67394;52.522;13.622;2023-02-12T00:23:32;102737.06;;;6.11;91.17
78144;BME280;67394;52.522;13.622;2023-02-12T00:25:58;102742.81;;;6.23;90.98
78144;BME280;67394;52.522;13.622;2023-02-12T00:28:25;102744.13;;;6.17;90.79
78144;BME280;67394;52.522;13.622;2023-02-12T00:30:51;102740.00;;;6.19;90.64
78144;BME280;67394;52.522;13.622;2023-02-12T00:33:18;102737.06;;;6.11;91.42
78144;BME280;67394;52.522;13.622;2023-02-12T00:35:44;102743.84;;;6.11;91.47
78144;BME280;67394;52.522;13.622;2023-02-12T00:38:10;102747.97;;;6.09;91.48
78144;BME280;67394;52.522;13.622;2023-02-12T00:40:36;102746.69;;;6.17;91.31
78144;BME280;67394;52.522;13.622;2023-02-12T00:43:03;102749.81;;;6.11;91.20
78144;BME280;67394;52.522;13.622;2023-02-12T00:45:29;102754.91;;;6.11;91.24
78144;BME280;67394;52.522;13.622;2023-02-12T00:47:56;102750.44;;;6.07;91.05
78144;BME280;67394;52.522;13.622;2023-02-12T00:50:22;102742.78;;;6.07;91.25
78144;BME280;67394;52.522;13.622;2023-02-12T00:52:48;102751.41;;;6.09;91.31
78144;BME280;67394;52.522;13.622;2023-02-12T00:55:15;102755.31;;;6.03;91.35
78144;BME280;67394;52.522;13.622;2023-02-12T00:57:54;102764.75;;;6.05;91.84
78144;BME280;67394;52.522;13.622;2023-02-12T01:00:20;102768.81;;;6.02;90.71
78144;BME280;67394;52.522;13.622;2023-02-12T01:02:47;102771.81;;;5.95;91.94
78144;BME280;67394;52.522;13.622;2023-02-12T01:05:13;102781.56;;;6.02;91.59
78144;BME280;67394;52.522;13.622;2023-02-12T01:07:40;102775.72;;;6.04;91.53
78144;BME280;67394;52.522;13.622;2023-02-12T01:10:07;102779.88;;;6.02;91.30
78144;BME280;67394;52.522;13.622;2023-02-12T01:12:34;102771.91;;;5.96;91.66
78144;BME280;67394;52.522;13.622;2023-02-12T01:15:00;102773.75;;;5.99;91.46
78144;BME280;67394;52.522;13.622;2023-02-12T01:17:26;102771.28;;;6.00;90.94
78144;BME280;67394;52.522;13.622;2023-02-12T01:19:56;102770.59;;;6.03;90.93
78144;BME280;67394;52.522;13.622;2023-02-12T01:22:23;102778.66;;;5.96;91.51
78144;BME280;67394;52.522;13.622;2023-02-12T01:24:50;102786.66;;;6.02;91.22
78144;BME280;67394;52.522;13.622;2023-02-12T01:27:16;102791.47;;;5.97;91.16
78144;BME280;67394;52.522;13.622;2023-02-12T01:29:42;102792.53;;;6.01;90.67
78144;BME280;67394;52.522;13.622;2023-02-12T01:32:10;102786.38;;;5.97;90.99
78144;BME280;67394;52.522;13.622;2023-02-12T01:34:36;102782.09;;;5.96;90.61
78144;BME280;67394;52.522;13.622;2023-02-12T01:37:03;102787.19;;;5.96;91.18
78144;BME280;67394;52.522;13.622;2023-02-12T01:39:29;102789.13;;;5.85;91.06
78144;BME280;67394;52.522;13.622;2023-02-12T01:41:56;102796.25;;;5.91;91.52
78144;BME280;67394;52.522;13.622;2023-02-12T01:44:26;102797.28;;;5.95;91.00
78144;BME280;67394;52.522;13.622;2023-02-12T01:46:56;102809.84;;;5.92;90.74
78144;BME280;67394;52.522;13.622;2023-02-12T01:49:40;102806.03;;;6.00;90.74
78144;BME280;67394;52.522;13.622;2023-02-12T01:52:09;102808.25;;;5.94;90.67
78144;BME280;67394;52.522;13.622;2023-02-12T01:54:39;102807.22;;;5.90;90.78
78144;BME280;67394;52.522;13.622;2023-02-12T01:57:07;102807.00;;;6.02;90.87
78144;BME280;67394;52.522;13.622;2023-02-12T01:59:35;102801.44;;;5.93;91.32
78144;BME280;67394;52.522;13.622;2023-02-12T02:02:03;102811.22;;;5.86;91.07
78144;BME280;67394;52.522;13.622;2023-02-12T02:04:36;102812.72;;;5.83;91.48
78144;BME280;67394;52.522;13.622;2023-02-12T02:07:05;102810.19;;;5.83;91.72
78144;BME280;67394;52.522;13.622;2023-02-12T02:09:35;102816.53;;;5.90;91.24
78144;BME280;67394;52.522;13.622;2023-02-12T02:12:02;102820.84;;;5.91;90.79
78144;BME280;67394;52.522;13.622;2023-02-12T02:14:29;102817.13;;;5.85;91.16
78144;BME280;67394;52.522;13.622;2023-02-12T02:26:40;102819.44;;;5.81;91.40
78144;BME280;67394;52.522;13.622;2023-02-12T02:31:48;102819.44;;;5.81;90.87
78144;BME280;67394;52.522;13.622;2023-02-12T02:34:26;102815.84;;;5.77;91.70
78144;BME280;67394;52.522;13.622;2023-02-12T02:37:12;102810.84;;;5.79;90.94
78144;BME280;67394;52.522;13.622;2023-02-12T02:39:47;102810.44;;;5.87;90.54
78144;BME280;67394;52.522;13.622;2023-02-12T02:42:22;102821.31;;;5.85;90.71
78144;BME280;67394;52.522;13.622;2023-02-12T02:44:59;102809.97;;;5.78;90.63
78144;BME280;67394;52.522;13.622;2023-02-12T02:47:43;102818.22;;;5.74;91.14
78144;BME280;67394;52.522;13.622;2023-02-12T02:50:14;102822.91;;;5.83;90.64
78144;BME280;67394;52.522;13.622;2023-02-12T02:55:17;102820.03;;;5.77;90.96
78144;BME280;67394;52.522;13.622;2023-02-12T02:57:56;102830.06;;;5.74;90.87
78144;BME280;67394;52.522;13.622;2023-02-12T03:00:30;102832.59;;;5.74;91.25
78144;BME280;67394;52.522;13.622;2023-02-12T03:03:03;102832.84;;;5.78;90.69
78144;BME280;67394;52.522;13.622;2023-02-12T03:05:35;102837.69;;;5.74;90.73
78144;BME280;67394;52.522;13.622;2023-02-12T03:08:12;102844.00;;;5.80;90.93
78144;BME280;67394;52.522;13.622;2023-02-12T03:10:43;102842.06;;;5.76;90.55
78144;BME280;67394;52.522;13.622;2023-02-12T03:13:29;102847.84;;;5.74;90.27
78144;BME280;67394;52.522;13.622;2023-02-12T03:16:02;102846.09;;;5.73;89.93
78144;BME280;67394;52.522;13.622;2023-02-12T03:18:34;102855.41;;;5.72;90.61
78144;BME280;67394;52.522;13.622;2023-02-12T03:21:05;102850.69;;;5.64;90.95
78144;BME280;67394;52.522;13.622;2023-02-12T03:23:37;102860.97;;;5.65;90.56
78144;BME280;67394;52.522;13.622;2023-02-12T03:26:12;102860.06;;;5.65;90.78
78144;BME280;67394;52.522;13.622;2023-02-12T03:28:40;102860.97;;;5.65;90.35
78144;BME280;67394;52.522;13.622;2023-02-12T03:31:36;102862.38;;;5.60;90.19
78144;BME280;67394;52.522;13.622;2023-02-12T03:34:12;102861.41;;;5.58;90.85
78144;BME280;67394;52.522;13.622;2023-02-12T03:39:48;102864.66;;;5.70;90.09
78144;BME280;67394;52.522;13.622;2023-02-12T03:42:24;102871.22;;;5.67;89.57
78144;BME280;67394;52.522;13.622;2023-02-12T03:47:30;102871.72;;;5.76;89.70
78144;BME280;67394;52.522;13.622;2023-02-12T03:50:12;102874.22;;;5.60;90.07
78144;BME280;67394;52.522;13.622;2023-02-12T03:52:41;102878.59;;;5.62;89.67
78144;BME280;67394;52.522;13.622;2023-02-12T03:55:08;102883.25;;;5.69;89.30
78144;BME280;67394;52.522;13.622;2023-02-12T03:57:41;102883.34;;;5.71;89.06
78144;BME280;67394;52.522;13.622;2023-02-12T04:00:16;102884.66;;;5.64;89.19
78144;BME280;67394;52.522;13.622;2023-02-12T04:02:43;102887.19;;;5.64;89.84
78144;BME280;67394;52.522;13.622;2023-02-12T04:05:26;102887.28;;;5.66;89.39
78144;BME280;67394;52.522;13.622;2023-02-12T04:07:54;102893.41;;;5.69;89.37
78144;BME280;67394;52.522;13.622;2023-02-12T04:10:27;102894.66;;;5.61;89.43
78144;BME280;67394;52.522;13.622;2023-02-12T04:18:39;102898.19;;;5.48;90.20
78144;BME280;67394;52.522;13.622;2023-02-12T04:21:27;102898.59;;;5.56;89.48
78144;BME280;67394;52.522;13.622;2023-02-12T04:27:02;102899.06;;;5.49;89.25
78144;BME280;67394;52.522;13.622;2023-02-12T04:32:32;102900.13;;;5.38;89.31
78144;BME280;67394;52.522;13.622;2023-02-12T04:35:25;102897.59;;;5.38;89.04
78144;BME280;67394;52.522;13.622;2023-02-12T04:37:57;102899.59;;;5.29;89.75
78144;BME280;67394;52.522;13.622;2023-02-12T04:40:26;102897.38;;;5.20;89.72
78144;BME280;67394;52.522;13.622;2023-02-12T04:42:53;102903.44;;;5.22;89.89
78144;BME280;67394;52.522;13.622;2023-02-12T04:45:22;102901.78;;;5.23;89.47
78144;BME280;67394;52.522;13.622;2023-02-12T04:47:49;102908.81;;;5.27;89.47
78144;BME280;67394;52.522;13.622;2023-02-12T04:50:16;102898.09;;;5.18;89.67
78144;BME280;67394;52.522;13.622;2023-02-12T04:52:43;102899.84;;;5.33;89.32
78144;BME280;67394;52.522;13.622;2023-02-12T04:55:09;102901.78;;;5.23;89.89
78144;BME280;67394;52.522;13.622;2023-02-12T04:57:36;102905.00;;;5.20;89.65
78144;BME280;67394;52.522;13.622;2023-02-12T05:00:05;102910.72;;;5.16;89.86
78144;BME280;67394;52.522;13.622;2023-02-12T05:02:32;102907.75;;;5.23;89.92
78144;BME280;67394;52.522;13.622;2023-02-12T05:04:59;102914.31;;;5.20;89.69
78144;BME280;67394;52.522;13.622;2023-02-12T05:07:25;102910.44;;;5.11;90.15
78144;BME280;67394;52.522;13.622;2023-02-12T05:09:53;102906.31;;;4.99;89.77
78144;BME280;67394;52.522;13.622;2023-02-12T05:12:20;102919.34;;;4.90;90.07
78144;BME280;67394;52.522;13.622;2023-02-12T05:14:46;102913.94;;;4.84;90.65
78144;BME280;67394;52.522;13.622;2023-02-12T05:17:12;102916.28;;;4.81;90.56
78144;BME280;67394;52.522;13.622;2023-02-12T05:19:39;102912.41;;;4.73;90.31
78144;BME280;67394;52.522;13.622;2023-02-12T05:22:05;102914.66;;;4.68;90.67
78144;BME280;67394;52.522;13.622;2023-02-12T05:24:32;102915.00;;;4.60;90.48
78144;BME280;67394;52.522;13.622;2023-02-12T05:26:58;102926.63;;;4.56;90.79
78144;BME280;67394;52.522;13.622;2023-02-12T05:29:24;102926.06;;;4.47;90.93
78144;BME280;67394;52.522;13.622;2023-02-12T05:31:50;102923.91;;;4.53;90.93
78144;BME280;67394;52.522;13.622;2023-02-12T05:34:17;102926.84;;;4.46;90.88
78144;BME280;67394;52.522;13.622;2023-02-12T05:36:43;102929.13;;;4.41;91.11
78144;BME280;67394;52.522;13.622;2023-02-12T05:39:10;102924.13;;;4.43;92.12
78144;BME280;67394;52.522;13.622;2023-02-12T05:41:36;102932.81;;;4.47;92.48
78144;BME280;67394;52.522;13.622;2023-02-12T05:44:03;102931.75;;;4.43;92.24
78144;BME280;67394;52.522;13.622;2023-02-12T05:46:30;102940.94;;;4.41;91.72
78144;BME280;67394;52.522;13.622;2023-02-12T05:48:57;102941.63;;;4.38;92.04
78144;BME280;67394;52.522;13.622;2023-02-12T05:51:25;102938.72;;;4.32;91.63
78144;BME280;67394;52.522;13.622;2023-02-12T05:53:56;102942.03;;;4.31;91.67
78144;BME280;67394;52.522;13.622;2023-02-12T05:56:25;102942.13;;;4.33;91.74
78144;BME280;67394;52.522;13.622;2023-02-12T05:58:54;102938.72;;;4.32;91.69
78144;BME280;67394;52.522;13.622;2023-02-12T06:01:31;102937.84;;;4.32;92.50
78144;BME280;67394;52.522;13.622;2023-02-12T06:03:59;102951.41;;;4.32;92.15
78144;BME280;67394;52.522;13.622;2023-02-12T06:06:26;102942.81;;;4.30;92.29
78144;BME280;67394;52.522;13.622;2023-02-12T06:08:53;102951.41;;;4.32;92.69
78144;BME280;67394;52.522;13.622;2023-02-12T06:11:20;102945.72;;;4.36;92.59
78144;BME280;67394;52.522;13.622;2023-02-12T06:16:23;102950.97;;;4.53;93.36
78144;BME280;67394;52.522;13.622;2023-02-12T06:18:51;102951.94;;;4.55;93.24
78144;BME280;67394;52.522;13.622;2023-02-12T06:21:19;102952.09;;;4.58;92.89
78144;BME280;67394;52.522;13.622;2023-02-12T06:23:46;102956.69;;;4.63;93.15
78144;BME280;67394;52.522;13.622;2023-02-12T06:26:12;102961.09;;;4.66;93.55
78144;BME280;67394;52.522;13.622;2023-02-12T06:28:39;102966.19;;;4.66;93.35
78144;BME280;67394;52.522;13.622;2023-02-12T06:31:16;102970.44;;;4.67;93.37
78144;BME280;67394;52.522;13.622;2023-02-12T06:33:42;102976.50;;;4.69;93.28
78144;BME280;67394;52.522;13.622;2023-02-12T06:36:09;102979.03;;;4.69;93.43
78144;BME280;67394;52.522;13.622;2023-02-12T06:38:35;102992.81;;;4.72;93.79
78144;BME280;67394;52.522;13.622;2023-02-12T06:41:02;102996.34;;;4.74;93.25
78144;BME280;67394;52.522;13.622;2023-02-12T06:43:29;102996.44;;;4.76;93.31
78144;BME280;67394;52.522;13.622;2023-02-12T06:45:55;102999.13;;;4.79;93.80
78144;BME280;67394;52.522;13.622;2023-02-12T06:48:25;102997.09;;;4.87;93.38
78144;BME280;67394;52.522;13.622;2023-02-12T06:50:51;102997.09;;;4.87;93.37
78144;BME280;67394;52.522;13.622;2023-02-12T06:53:17;103000.84;;;4.93;93.12
78144;BME280;67394;52.522;13.622;2023-02-12T06:55:44;103000.28;;;4.97;93.03
78144;BME280;67394;52.522;13.622;2023-02-12T06:58:10;103009.63;;;4.98;93.26
78144;BME280;67394;52.522;13.622;2023-02-12T07:00:36;103009.03;;;5.02;93.01
78144;BME280;67394;52.522;13.622;2023-02-12T07:03:03;103015.69;;;5.00;92.95
78144;BME280;67394;52.522;13.622;2023-02-12T07:05:29;103017.19;;;5.11;92.77
78144;BME280;67394;52.522;13.622;2023-02-12T07:07:55;103014.50;;;5.08;92.92
78144;BME280;67394;52.522;13.622;2023-02-12T07:10:22;103013.09;;;5.13;92.61
78144;BME280;67394;52.522;13.622;2023-02-12T07:12:48;103018.75;;;5.09;92.75
78144;BME280;67394;52.522;13.622;2023-02-12T07:15:14;103027.22;;;5.08;93.01
78144;BME280;67394;52.522;13.622;2023-02-12T07:17:41;103028.25;;;5.12;92.93
78144;BME280;67394;52.522;13.622;2023-02-12T07:20:07;103026.59;;;5.12;92.72
78144;BME280;67394;52.522;13.622;2023-02-12T07:22:35;103035.88;;;5.12;92.61
78144;BME280;67394;52.522;13.622;2023-02-12T07:25:01;103033.53;;;5.15;92.74
78144;BME280;67394;52.522;13.622;2023-02-12T07:27:28;103037.38;;;5.23;92.72
78144;BME280;67394;52.522;13.622;2023-02-12T07:29:54;103028.00;;;5.22;92.37
78144;BME280;67394;52.522;13.622;2023-02-12T07:32:20;103039.84;;;5.22;92.75
78144;BME280;67394;52.522;13.622;2023-02-12T07:34:47;103040.03;;;5.25;92.80
78144;BME280;67394;52.522;13.622;2023-02-12T07:37:13;103036.97;;;5.30;92.15
78144;BME280;67394;52.522;13.622;2023-02-12T07:39:39;103035.59;;;5.35;91.38
78144;BME280;67394;52.522;13.622;2023-02-12T07:42:06;103044.72;;;5.46;91.52
78144;BME280;67394;52.522;13.622;2023-02-12T07:44:32;103043.50;;;5.40;91.89
78144;BME280;67394;52.522;13.622;2023-02-12T07:46:58;103043.16;;;5.48;91.50
78144;BME280;67394;52.522;13.622;2023-02-12T07:49:25;103043.94;;;5.47;91.37
78144;BME280;67394;52.522;13.622;2023-02-12T07:51:51;103047.38;;;5.48;91.02
78144;BME280;67394;52.522;13.622;2023-02-12T07:54:17;103048.34;;;5.50;90.83
78144;BME280;67394;52.522;13.622;2023-02-12T07:56:44;103049.47;;;5.55;89.96
78144;BME280;67394;52.522;13.622;2023-02-12T07:59:12;103050.63;;;5.60;89.68
78144;BME280;67394;52.522;13.622;2023-02-12T08:01:41;103052.63;;;5.66;89.33
78144;BME280;67394;52.522;13.622;2023-02-12T08:04:11;103053.00;;;5.72;89.91
78144;BME280;67394;52.522;13.622;2023-02-12T08:06:40;103053.69;;;5.69;89.91
78144;BME280;67394;52.522;13.622;2023-02-12T08:09:09;103055.00;;;5.77;88.77
78144;BME280;67394;52.522;13.622;2023-02-12T08:11:38;103060.19;;;5.79;89.03
78144;BME280;67394;52.522;13.622;2023-02-12T08:14:05;103060.38;;;5.82;88.95
78144;BME280;67394;52.522;13.622;2023-02-12T08:16:35;103068.97;;;5.84;88.70
78144;BME280;67394;52.522;13.622;2023-02-12T08:19:02;103066.91;;;5.92;87.87
78144;BME280;67394;52.522;13.622;2023-02-12T08:21:44;103069.28;;;5.88;88.36
78144;BME280;67394;52.522;13.622;2023-02-12T08:24:10;103071.03;;;5.90;88.53
78144;BME280;67394;52.522;13.622;2023-02-12T08:26:38;103082.34;;;5.95;88.09
78144;BME280;67394;52.522;13.622;2023-02-12T08:29:10;103078.22;;;5.97;87.74
78144;BME280;67394;52.522;13.622;2023-02-12T08:31:41;103083.81;;;6.06;87.94
78144;BME280;67394;52.522;13.622;2023-02-12T08:34:19;103081.91;;;6.02;87.57
78144;BME280;67394;52.522;13.622;2023-02-12T08:36:48;103086.22;;;6.03;88.36
78144;BME280;67394;52.522;13.622;2023-02-12T08:39:16;103089.09;;;6.09;87.87
78144;BME280;67394;52.522;13.622;2023-02-12T08:41:41;103087.97;;;6.04;87.61
78144;BME280;67394;52.522;13.622;2023-02-12T08:44:08;103084.00;;;6.09;87.20
78144;BME280;67394;52.522;13.622;2023-02-12T08:46:37;103095.88;;;6.08;87.59
78144;BME280;67394;52.522;13.622;2023-02-12T08:49:10;103100.16;;;6.09;87.72
78144;BME280;67394;52.522;13.622;2023-02-12T08:51:39;103101.31;;;6.14;86.92
78144;BME280;67394;52.522;13.622;2023-02-12T08:54:08;103108.16;;;6.15;87.74
78144;BME280;67394;52.522;13.622;2023-02-12T08:56:35;103107.72;;;6.22;87.78
78144;BME280;67394;52.522;13.622;2023-02-12T08:59:03;103102.53;;;6.21;86.70
78144;BME280;67394;52.522;13.622;2023-02-12T09:01:32;103100.97;;;6.23;87.18
78144;BME280;67394;52.522;13.622;2023-02-12T09:03:59;103103.50;;;6.23;86.21
78144;BME280;67394;52.522;13.622;2023-02-12T09:06:26;103112.38;;;6.30;86.23
78144;BME280;67394;52.522;13.622;2023-02-12T09:08:54;103117.72;;;6.34;86.01
78144;BME280;67394;52.522;13.622;2023-02-12T09:11:23;103115.19;;;6.34;86.04
78144;BME280;67394;52.522;13.622;2023-02-12T09:13:50;103124.31;;;6.45;84.84
78144;BME280;67394;52.522;13.622;2023-02-12T09:16:16;103126.03;;;6.46;84.93
78144;BME280;67394;52.522;13.622;2023-02-12T09:18:42;103116.91;;;6.50;85.29
78144;BME280;67394;52.522;13.622;2023-02-12T09:21:12;103125.59;;;6.53;85.44
78144;BME280;67394;52.522;13.622;2023-02-12T09:23:38;103129.13;;;6.55;84.68
78144;BME280;67394;52.522;13.622;2023-02-12T09:26:10;103135.16;;;6.57;84.66
78144;BME280;67394;52.522;13.622;2023-02-12T09:28:37;103145.34;;;6.57;84.93
78144;BME280;67394;52.522;13.622;2023-02-12T09:33:32;103139.81;;;6.65;83.46
78144;BME280;67394;52.522;13.622;2023-02-12T09:36:03;103151.31;;;6.73;83.30
78144;BME280;67394;52.522;13.622;2023-02-12T09:38:30;103147.00;;;6.72;83.96
78144;BME280;67394;52.522;13.622;2023-02-12T09:46:29;103145.34;;;6.72;84.83
78144;BME280;67394;52.522;13.622;2023-02-12T09:49:14;103152.97;;;6.87;83.12
78144;BME280;67394;52.522;13.622;2023-02-12T09:51:48;103144.75;;;6.92;83.81
78144;BME280;67394;52.522;13.622;2023-02-12T09:54:19;103151.22;;;6.86;83.85
78144;BME280;67394;52.522;13.622;2023-02-12T09:56:54;103150.94;;;6.81;84.23
78144;BME280;67394;52.522;13.622;2023-02-12T09:59:32;103147.59;;;6.82;84.83
78144;BME280;67394;52.522;13.622;2023-02-12T10:02:00;103153.09;;;6.90;85.53
78144;BME280;67394;52.522;13.622;2023-02-12T10:04:27;103153.38;;;6.94;84.29
78144;BME280;67394;52.522;13.622;2023-02-12T10:07:17;103145.03;;;6.97;84.61
78144;BME280;67394;52.522;13.622;2023-02-12T10:10:02;103146.47;;;7.08;84.96
78144;BME280;67394;52.522;13.622;2023-02-12T10:12:54;103152.47;;;7.09;83.11
78144;BME280;67394;52.522;13.622;2023-02-12T10:21:01;103148.56;;;7.15;83.75
78144;BME280;67394;52.522;13.622;2023-02-12T10:23:59;103151.91;;;7.14;82.61
78144;BME280;67394;52.522;13.622;2023-02-12T10:26:45;103138.09;;;7.11;83.14
78144;BME280;67394;52.522;13.622;2023-02-12T10:29:31;103148.88;;;7.21;84.30
78144;BME280;67394;52.522;13.622;2023-02-12T10:32:12;103146.28;;;7.20;83.95
78144;BME280;67394;52.522;13.622;2023-02-12T10:34:56;103148.88;;;7.21;83.02
78144;BME280;67394;52.522;13.622;2023-02-12T10:37:27;103151.28;;;7.18;83.64
78144;BME280;67394;52.522;13.622;2023-02-12T10:42:44;103146.41;;;7.23;84.41
78144;BME280;67394;52.522;13.622;2023-02-12T10:45:18;103150.09;;;7.28;83.93
78144;BME280;67394;52.522;13.622;2023-02-12T10:47:46;103151.28;;;7.18;84.77
78144;BME280;67394;52.522;13.622;2023-02-12T10:50:23;103143.06;;;7.24;85.58
78144;BME280;67394;52.522;13.622;2023-02-12T10:52:55;103143.25;;;7.27;85.67
78144;BME280;67394;52.522;13.622;2023-02-12T10:55:23;103143.31;;;7.28;85.73
78144;BME280;67394;52.522;13.622;2023-02-12T10:57:49;103146.75;;;7.29;85.35
78144;BME280;67394;52.522;13.622;2023-02-12T11:00:29;103137.44;;;7.29;84.88
78144;BME280;67394;52.522;13.622;2023-02-12T11:05:30;103141.88;;;7.33;84.89
78144;BME280;67394;52.522;13.622;2023-02-12T11:07:58;103148.44;;;7.28;84.91
78144;BME280;67394;52.522;13.622;2023-02-12T11:10:40;103149.00;;;7.39;85.77
78144;BME280;67394;52.522;13.622;2023-02-12T11:13:22;103144.78;;;7.40;84.76
78144;BME280;67394;52.522;13.622;2023-02-12T11:15:50;103134.22;;;7.33;84.63
78144;BME280;67394;52.522;13.622;2023-02-12T11:18:27;103141.88;;;7.33;84.32
78144;BME280;67394;52.522;13.622;2023-02-12T11:20:59;103139.72;;;7.25;84.25
78144;BME280;67394;52.522;13.622;2023-02-12T11:26:00;103130.16;;;7.37;85.20
78144;BME280;67394;52.522;13.622;2023-02-12T11:28:28;103138.13;;;7.43;86.19
78144;BME280;67394;52.522;13.622;2023-02-12T11:31:17;103139.88;;;7.44;85.10
78144;BME280;67394;52.522;13.622;2023-02-12T11:33:45;103128.00;;;7.45;85.97
78144;BME280;67394;52.522;13.622;2023-02-12T11:36:18;103130.91;;;7.51;85.43
78144;BME280;67394;52.522;13.622;2023-02-12T11:38:56;103129.59;;;7.43;85.72
78144;BME280;67394;52.522;13.622;2023-02-12T11:41:32;103131.03;;;7.54;86.15
78144;BME280;67394;52.522;13.622;2023-02-12T11:44:24;103127.94;;;7.43;86.19
78144;BME280;67394;52.522;13.622;2023-02-12T11:47:16;103124.91;;;7.34;87.08
78144;BME280;67394;52.522;13.622;2023-02-12T11:49:49;103116.84;;;7.26;86.80
78144;BME280;67394;52.522;13.622;2023-02-12T11:52:20;103123.13;;;7.33;87.32
78144;BME280;67394;52.522;13.622;2023-02-12T11:54:50;103124.44;;;7.41;86.69
78144;BME280;67394;52.522;13.622;2023-02-12T12:00:11;103119.78;;;7.34;86.86
78144;BME280;67394;52.522;13.622;2023-02-12T12:02:44;103125.25;;;7.40;85.98
78144;BME280;67394;52.522;13.622;2023-02-12T12:05:20;103114.53;;;7.31;86.41
78144;BME280;67394;52.522;13.622;2023-02-12T12:07:58;103118.44;;;7.24;86.66
78144;BME280;67394;52.522;13.622;2023-02-12T12:13:30;103126.25;;;7.27;85.95
78144;BME280;67394;52.522;13.622;2023-02-12T12:19:22;103121.00;;;7.41;85.24
78144;BME280;67394;52.522;13.622;2023-02-12T12:22:08;103122.69;;;7.40;84.69
78144;BME280;67394;52.522;13.622;2023-02-12T12:24:47;103121.50;;;7.50;83.92
78144;BME280;67394;52.522;13.622;2023-02-12T12:27:22;103116.13;;;7.61;83.26
78144;BME280;67394;52.522;13.622;2023-02-12T12:29:51;103111.91;;;7.62;82.71
78144;BME280;67394;52.522;13.622;2023-02-12T12:32:22;103116.84;;;7.59;82.45
78144;BME280;67394;52.522;13.622;2023-02-12T12:34:51;103110.63;;;7.54;82.43
78144;BME280;67394;52.522;13.622;2023-02-12T12:42:31;103093.75;;;7.40;83.15
78144;BME280;67394;52.522;13.622;2023-02-12T12:56:13;103082.78;;;7.58;83.00
78144;BME280;67394;52.522;13.622;2023-02-12T13:01:49;103084.31;;;7.71;83.04
78144;BME280;67394;52.522;13.622;2023-02-12T13:07:29;103091.78;;;7.68;83.07
78144;BME280;67394;52.522;13.622;2023-02-12T13:15:27;103091.13;;;7.88;81.78
78144;BME280;67394;52.522;13.622;2023-02-12T13:18:16;103087.31;;;7.80;80.69
78144;BME280;67394;52.522;13.622;2023-02-12T13:23:31;103085.84;;;7.85;80.05
78144;BME280;67394;52.522;13.622;2023-02-12T13:26:10;103087.69;;;7.88;80.70
78144;BME280;67394;52.522;13.622;2023-02-12T13:28:42;103090.31;;;7.89;79.01
78144;BME280;67394;52.522;13.622;2023-02-12T13:31:18;103085.84;;;7.85;79.40
78144;BME280;67394;52.522;13.622;2023-02-12T13:34:03;103084.84;;;7.82;79.24
78144;BME280;67394;52.522;13.622;2023-02-12T13:36:34;103085.41;;;7.76;78.78
78144;BME280;67394;52.522;13.622;2023-02-12T13:39:11;103083.50;;;7.72;79.73
78144;BME280;67394;52.522;13.622;2023-02-12T13:41:46;103080.16;;;7.73;79.27
78144;BME280;67394;52.522;13.622;2023-02-12T13:44:55;103072.19;;;7.85;79.44
78144;BME280;67394;52.522;13.622;2023-02-12T13:47:41;103072.00;;;7.80;79.46
78144;BME280;67394;52.522;13.622;2023-02-12T13:52:47;103070.53;;;7.85;78.40
78144;BME280;67394;52.522;13.622;2023-02-12T14:00:58;103071.56;;;7.89;79.22
78144;BME280;67394;52.522;13.622;2023-02-12T14:03:26;103071.13;;;7.80;79.02
78144;BME280;67394;52.522;13.622;2023-02-12T14:06:14;103065.59;;;7.88;79.95
78144;BME280;67394;52.522;13.622;2023-02-12T14:08:45;103065.59;;;7.88;79.55
78144;BME280;67394;52.522;13.622;2023-02-12T14:11:18;103065.03;;;7.94;79.39
78144;BME280;67394;52.522;13.622;2023-02-12T14:13:56;103057.41;;;7.95;78.46
78144;BME280;67394;52.522;13.622;2023-02-12T14:22:11;103059.97;;;7.95;78.99
78144;BME280;67394;52.522;13.622;2023-02-12T14:27:06;103064.88;;;8.08;79.26
78144;BME280;67394;52.522;13.622;2023-02-12T14:37:59;103062.91;;;8.21;78.07
78144;BME280;67394;52.522;13.622;2023-02-12T14:43:03;103068.38;;;8.11;78.42
78144;BME280;67394;52.522;13.622;2023-02-12T14:45:48;103058.88;;;8.08;78.24
78144;BME280;67394;52.522;13.622;2023-02-12T14:48:38;103069.97;;;8.08;79.16
78144;BME280;67394;52.522;13.622;2023-02-12T14:51:15;103069.78;;;8.04;78.98
78144;BME280;67394;52.522;13.622;2023-02-12T14:53:45;103067.94;;;8.01;79.40
78144;BME280;67394;52.522;13.622;2023-02-12T14:56:18;103069.69;;;8.02;78.77
78144;BME280;67394;52.522;13.622;2023-02-12T14:58:45;103063.56;;;7.99;78.85
78144;BME280;67394;52.522;13.622;2023-02-12T15:01:12;103069.63;;;8.01;78.88
78144;BME280;67394;52.522;13.622;2023-02-12T15:03:50;103062.75;;;8.00;79.45
78144;BME280;67394;52.522;13.622;2023-02-12T15:06:21;103066.81;;;7.96;79.13
78144;BME280;67394;52.522;13.622;2023-02-12T15:09:09;103066.03;;;7.97;79.01
78144;BME280;67394;52.522;13.622;2023-02-12T15:11:53;103065.22;;;7.98;80.08
78144;BME280;67394;52.522;13.622;2023-02-12T15:14:25;103071.06;;;7.96;79.75